Flight Track Log - Related Links

Times and Time Zones

All times are in EDT time to prevent confusion due to time zone crossing. See the CTL61 flight status page for this flight to view local times or setup timezone preferences in your user account.

Time Position Orientation Groundspeed Altitude Reporting Facility
EDT Latitude Longitude Course Direction KTS MPH feet Rate Location/Type
Fri 11:46:09 PM 38.4264 -81.6589 328° Northwest 97 112 4,700  Level Indianapolis Center
Fri 11:47:10 PM 38.4486 -81.6775 327° Northwest 96 110 5,500 590 Climbing Indianapolis Center
Fri 11:48:11 PM 38.4739 -81.6983 327° Northwest 103 119 5,900 197 Climbing Indianapolis Center
Fri 11:49:00 PM 38.5934 -81.7838 326° Northwest  Level FlightAware Approximate
Fri 11:49:12 PM 38.5086 -81.7264 328° Northwest 137 158 5,900  Level Indianapolis Center
Fri 11:50:00 PM 38.6314 -81.8171 326° Northwest  Level FlightAware Approximate
Fri 11:50:13 PM 38.5469 -81.7517 333° Northwest 150 173 5,300  Level Indianapolis Center
Fri 11:51:14 PM 38.5839 -81.7797 329° Northwest 153 176 4,900 -393 Descending Indianapolis Center
Fri 11:52:15 PM 38.6164 -81.8086 325° Northwest 145 167 4,500 -344 Descending Indianapolis Center
Fri 11:53:16 PM 38.6481 -81.8356 326° Northwest 138 159 4,200 -246 Descending Indianapolis Center
Fri 11:54:17 PM 38.6803 -81.8619 327° Northwest 136 157 4,000 -148 Descending Indianapolis Center
Fri 11:55:18 PM 38.7128 -81.8869 329° Northwest 136 157 3,900 -49 Descending Indianapolis Center
Fri 11:56:19 PM 38.7419 -81.9108 327° Northwest 128 147 3,900 -49 Level Indianapolis Center
Fri 11:57:20 PM 38.7722 -81.9350 328° Northwest 127 146 3,800  Descending Indianapolis Center
Fri 11:58:21 PM 38.8086 -81.9639 328° Northwest 127 146 3,900 49 Climbing Indianapolis Center
Fri 11:59:22 PM 38.8386 -81.9881 328° Northwest 127 146 3,900 -98 Level Indianapolis Center
Sat 12:00:23 AM 38.8700 -82.0136 328° Northwest 129 148 3,700 -49 Descending Indianapolis Center
Sat 12:01:24 AM 38.9003 -82.0369 329° Northwest 129 148 3,800 98 Climbing Indianapolis Center
Sat 12:02:25 AM 38.9281 -82.0606 327° Northwest 123 142 3,900 98 Climbing Indianapolis Center
Sat 12:03:26 AM 38.9575 -82.0883 324° Northwest 130 150 4,000 49 Climbing Indianapolis Center
Sat 12:04:27 AM 38.9911 -82.1153 328° Northwest 139 160 4,000 -49 Level Indianapolis Center
Sat 12:05:28 AM 39.0256 -82.1408 330° Northwest 141 162 3,900  Descending Indianapolis Center
Sat 12:06:29 AM 39.0564 -82.1697 324° Northwest 139 160 4,000 98 Climbing Indianapolis Center
Sat 12:07:30 AM 39.0867 -82.1989 323° Northwest 136 157 4,100 49 Climbing Indianapolis Center
Sat 12:08:31 AM 39.1186 -82.2261 327° Northwest 137 158 4,100  Level Indianapolis Center
Sat 12:09:32 AM 39.1508 -82.2547 325° Northwest 139 160 4,100 -49 Level Indianapolis Center
Sat 12:10:33 AM 39.1833 -82.2833 326° Northwest 141 162 4,000 -49 Descending Indianapolis Center
Sat 12:11:34 AM 39.2169 -82.3106 328° Northwest 142 163 4,000  Level Indianapolis Center
Sat 12:12:14 AM 39.2428 -82.3347 324° Northwest 142 163 4,000  Level Indianapolis Center
Sat 12:12:35 AM 39.2500 -82.3378 342° North 141 162 4,000  Level Indianapolis Center
Sat 12:13:03 AM 39.2708 -82.3564 325° Northwest 141 162 4,000  Level Indianapolis Center
Sat 12:13:36 AM 39.2822 -82.3664 326° Northwest 141 162 4,000  Level Indianapolis Center
Sat 12:14:03 AM 39.3025 -82.3842 326° Northwest 141 162 4,000  Level Indianapolis Center
Sat 12:14:37 AM 39.3158 -82.3936 331° Northwest 141 162 4,000  Level Indianapolis Center
Sat 12:14:58 AM 39.3344 -82.4089 328° Northwest 144 166 4,000  Level Indianapolis Center
Sat 12:15:38 AM 39.3581 -82.4244 333° Northwest 144 166 4,000  Level Indianapolis Center
Sat 12:15:59 AM 39.3728 -82.4319 339° North 150 173 4,000  Level Indianapolis Center
Sat 12:16:39 AM 39.3981 -82.4436 340° North 149 171 4,000  Level Indianapolis Center
Sat 12:16:59 AM 39.4111 -82.4522 333° Northwest 152 175 4,000  Level Indianapolis Center
Sat 12:17:40 AM 39.4378 -82.4633 342° North 151 174 4,000  Level Indianapolis Center
Sat 12:18:06 AM 39.4536 -82.4756 329° Northwest 152 175 4,000  Level Indianapolis Center
Sat 12:18:41 AM 39.4764 -82.4875 338° Northwest 152 175 4,000  Level Indianapolis Center
Sat 12:19:13 AM 39.4981 -82.4992 337° Northwest 152 175 4,000  Level Indianapolis Center
Sat 12:19:42 AM 39.5158 -82.5081 339° North 151 174 4,000  Level Indianapolis Center
Sat 12:20:13 AM 39.5364 -82.5222 332° Northwest 151 174 4,000  Level Indianapolis Center
Sat 12:20:43 AM 39.5542 -82.5306 340° North 150 173 4,000  Level Indianapolis Center
Sat 12:21:20 AM 39.5767 -82.5456 333° Northwest 149 171 4,000  Level Indianapolis Center
Sat 12:21:44 AM 39.5922 -82.5531 340° North 149 171 4,000  Level Indianapolis Center
Sat 12:22:20 AM 39.6150 -82.5658 337° Northwest 147 169 4,000  Level Indianapolis Center
Sat 12:22:45 AM 39.6297 -82.5753 334° Northwest 147 169 4,000  Level Indianapolis Center
Sat 12:23:15 AM 39.6492 -82.5886 332° Northwest 147 169 4,000 -98 Level Indianapolis Center
Sat 12:23:46 AM 39.6675 -82.5964 342° North 147 169 3,900  Descending Indianapolis Center
Sat 12:24:16 AM 39.6856 -82.6089 332° Northwest 147 169 4,000 98 Climbing Indianapolis Center
Sat 12:24:47 AM 39.7042 -82.6208 334° Northwest 147 169 4,000  Level Indianapolis Center
Sat 12:25:10 AM 39.7197 -82.6289 338° Northwest 147 169 4,000  Level Indianapolis Center
Sat 12:25:48 AM 39.7436 -82.6397 341° North 149 171 4,000  Level Indianapolis Center
Sat 12:26:11 AM 39.7606 -82.6467 343° North 154 177 4,000  Level Indianapolis Center
Sat 12:26:48 AM 39.7858 -82.6550 346° North 155 178 4,000  Level Indianapolis Center
Sat 12:27:05 AM 39.7992 -82.6619 338° Northwest 155 178 4,000  Level Indianapolis Center
Sat 12:27:49 AM 39.8242 -82.6767 336° Northwest 153 176 4,000  Level Indianapolis Center
Sat 12:28:12 AM 39.8414 -82.6883 333° Northwest 144 166 4,000  Level Indianapolis Center
Sat 12:28:50 AM 39.8603 -82.7025 330° Northwest 150 173 4,000  Level Indianapolis Center
Sat 12:29:19 AM 39.8794 -82.7169 330° Northwest 145 167 4,000  Level Indianapolis Center
Sat 12:29:51 AM 39.8950 -82.7275 332° Northwest 146 168 4,000  Level Indianapolis Center
Sat 12:30:13 AM 39.9114 -82.7394 331° Northwest 145 167 4,000  Level Indianapolis Center
Sat 12:30:52 AM 39.9317 -82.7519 335° Northwest 145 167 4,000  Level Indianapolis Center
Sat 12:31:14 AM 39.9472 -82.7653 327° Northwest 147 169 4,000 -98 Level Indianapolis Center
Sat 12:31:53 AM 39.9681 -82.7778 335° Northwest 147 169 3,900  Descending Indianapolis Center
Sat 12:32:14 AM 39.9833 -82.7911 326° Northwest 151 174 4,000 100 Climbing Indianapolis Center
Sat 12:32:53 AM 40.0000 -82.8114 317° Northwest 146 168 4,000  Level Indianapolis Center
Sat 12:33:15 AM 40.0078 -82.8319 296° West 135 155 4,000 -295 Level Indianapolis Center
Sat 12:33:54 AM 40.0214 -82.8539 309° West 142 163 3,700 -590 Descending Indianapolis Center
Sat 12:34:16 AM 40.0319 -82.8781 300° West 147 169 3,400 -689 Descending Indianapolis Center
Sat 12:34:55 AM 40.0436 -82.8989 306° West 142 163 3,000 -600 Descending Indianapolis Center
Sat 12:35:16 AM 40.0519 -82.9214 296° West 150 173 2,800 -393 Descending Indianapolis Center
Sat 12:35:56 AM 40.0617 -82.9464 297° West 145 167 2,600 -436 Descending Indianapolis Center
Sat 12:36:11 AM 40.0658 -82.9636 288° West 133 153 2,400 -393 Descending Indianapolis Center
Sat 12:36:57 AM 40.0736 -82.9897 291° West 137 158 2,200 -505 Descending Indianapolis Center
Sat 12:37:58 AM 40.0786 -83.0258 280° West 117 135 1,500 -496 Descending Indianapolis Center
Sat 12:38:58 AM 40.0800 -83.0586 273° West 106 122 1,200 -300 Descending Indianapolis Center
Sat 12:40:00 AM 40.0798 -83.0732 269° West  Level Estimated

Login

Don't have an account? Register now (free) for customized features, flight alerts, and more!